Tulsa International Airport
KTUL : rendu visible

Aérodrome :











RETROUVEZ-NOUS SUR...

 
LOGIN :

S'inscrire | Disclaimer

   EN    FR    IT 

 









Légende :    VFR   VFR Marginal   IFR   IFR Intensif   IFR Très Intensif
Visi : 
Plafond : 
>= 8 km
>= 3000ft
5 à 8 km
1000 à 3000 ft
1500m à 5 km
500 à 1000 ft
800 à 1500m
200 à 500 ft
< 800m
< 200 ft
Symboles :   Orages  Brouillard  Fortes neiges  Fortes précipitations  Vent > 20 kt






- Altitude de l'aérodrome : 677 ft
- Code IATA : TUL


KTUL - Tulsa International

DERNIER METAR :
  • 100753Z 36009KT 10SM OVC240 M01/M09 A3023 RMK AO2 SLP238 T10061094

METARs EXPIRÉS :
  • 100653Z 36009KT 10SM FEW140 OVC230 M01/M09 A3022 RMK AO2 SLP237 T10061094
  • 100553Z 34012KT 10SM FEW140 OVC200 00/M09 A3023 RMK AO2 SLP240 T00001094 10033 20000 401110000 51020

TAF KTUL
Valide du 10 à 06h jusqu'au 11 à 06h UTC


100532Z 1006/1106 35010KT P6SM BKN250
FM101100 36003KT P6SM SKC
FM101600 VRB03KT P6SM SKC



MET'MAP, la Météo Aéronautique d'un coup d'oeil ! - Copyright ORBIFLY Décembre 2007 - Disclaimer

ORBIFLY MET'MAP TEAM :

Programmation & Développement : Alexandra Zaïnal
Sur une idée originale de : Baudouin d'Aumeries
Assistance à la programmation : Marc-Olivier Méhu
Soutien technique & logistique : Manuel Goepfert

Contact : metmap@orbifly.com




SOURCES & CREDITS :

   NOAA       Earth
Advisory